createdAt,value
2022-09-21T00:01:18.628Z,5.17
2022-09-21T00:03:46.234Z,4.27
2022-09-21T00:06:19.078Z,4.60
2022-09-21T00:08:46.550Z,4.77
2022-09-21T00:11:15.638Z,3.83
2022-09-21T00:13:45.885Z,3.90
2022-09-21T00:16:14.092Z,2.97
2022-09-21T00:18:40.796Z,3.30
2022-09-21T00:21:09.995Z,3.60
2022-09-21T00:23:37.891Z,3.07
2022-09-21T00:26:24.876Z,3.70
2022-09-21T00:28:59.802Z,3.33
2022-09-21T00:31:27.578Z,3.07
2022-09-21T00:33:54.443Z,2.90
2022-09-21T00:36:23.757Z,2.93
2022-09-21T00:38:53.143Z,3.53
2022-09-21T00:41:20.007Z,3.20
2022-09-21T00:44:08.513Z,3.67
2022-09-21T00:46:39.154Z,3.80
2022-09-21T00:49:06.079Z,3.40
2022-09-21T00:51:32.782Z,3.30
2022-09-21T00:54:08.017Z,3.60
2022-09-21T00:56:37.007Z,3.30
2022-09-21T00:59:04.723Z,3.00
2022-09-21T01:01:31.602Z,3.17
2022-09-21T01:03:58.500Z,3.00
2022-09-21T01:06:26.855Z,3.43
2022-09-21T01:08:59.139Z,3.00
2022-09-21T01:11:55.170Z,3.03
2022-09-21T01:14:40.445Z,2.87
2022-09-21T01:17:33.379Z,2.90
2022-09-21T01:20:06.138Z,2.50
2022-09-21T01:23:14.408Z,2.90
2022-09-21T01:26:05.188Z,3.17
2022-09-21T01:28:41.783Z,3.50
2022-09-21T01:31:15.833Z,3.33
2022-09-21T01:33:54.740Z,3.17
2022-09-21T01:36:26.257Z,3.10
2022-09-21T01:38:58.864Z,3.43
2022-09-21T01:41:29.296Z,2.90
2022-09-21T01:44:08.571Z,3.63
2022-09-21T01:46:37.301Z,3.27
2022-09-21T01:49:13.391Z,3.13
2022-09-21T01:51:46.870Z,3.00
2022-09-21T01:54:21.895Z,2.93
2022-09-21T01:56:55.641Z,2.83
2022-09-21T01:59:43.167Z,2.80
2022-09-21T02:02:15.842Z,2.40
2022-09-21T02:04:42.955Z,2.60
2022-09-21T02:07:09.903Z,2.30
2022-09-21T02:09:37.879Z,2.90
2022-09-21T02:12:05.666Z,2.93
2022-09-21T02:14:34.129Z,2.30
2022-09-21T02:17:18.892Z,2.87
2022-09-21T02:19:54.421Z,2.67
2022-09-21T02:22:36.227Z,3.00
2022-09-21T02:25:12.005Z,3.20
2022-09-21T02:27:41.320Z,2.73
2022-09-21T02:30:20.029Z,3.20
2022-09-21T02:33:13.348Z,2.53
2022-09-21T02:35:50.405Z,3.10
2022-09-21T02:38:47.059Z,2.90
2022-09-21T02:41:27.861Z,2.40
2022-09-21T02:44:11.143Z,2.90
2022-09-21T02:46:43.615Z,3.03
2022-09-21T02:49:19.681Z,2.77
2022-09-21T02:51:50.843Z,2.80
2022-09-21T02:54:22.729Z,2.47
2022-09-21T02:56:51.552Z,2.70
2022-09-21T02:59:18.613Z,3.23
2022-09-21T03:01:45.301Z,2.40
2022-09-21T03:04:12.038Z,2.27
2022-09-21T03:06:38.779Z,2.70
2022-09-21T03:09:05.385Z,2.30
2022-09-21T03:11:32.061Z,2.63
2022-09-21T03:14:00.554Z,2.50
2022-09-21T03:16:27.114Z,2.03
2022-09-21T03:18:53.720Z,2.03
2022-09-21T03:21:20.339Z,2.83
2022-09-21T03:23:46.936Z,2.60
2022-09-21T03:26:13.472Z,2.33
2022-09-21T03:28:40.135Z,2.10
2022-09-21T03:31:07.083Z,2.33
2022-09-21T03:33:33.705Z,2.80
2022-09-21T03:36:00.277Z,2.60
2022-09-21T03:38:27.062Z,2.70
2022-09-21T03:40:57.865Z,2.47
2022-09-21T03:43:25.300Z,2.60
2022-09-21T03:45:52.242Z,2.67
2022-09-21T03:48:20.098Z,2.80
2022-09-21T03:50:46.639Z,2.80
2022-09-21T03:53:13.386Z,2.50
2022-09-21T03:55:40.160Z,3.03
2022-09-21T03:58:06.846Z,3.20
2022-09-21T04:00:34.202Z,2.80
2022-09-21T04:03:02.171Z,2.60
2022-09-21T04:05:29.058Z,2.93
2022-09-21T04:07:56.851Z,2.73
2022-09-21T04:10:33.229Z,2.60
2022-09-21T04:13:02.136Z,2.60
2022-09-21T04:15:29.590Z,2.40
2022-09-21T04:17:56.548Z,2.70
2022-09-21T04:20:23.638Z,2.97
2022-09-21T04:22:51.577Z,2.80
2022-09-21T04:25:18.420Z,2.50
2022-09-21T04:27:45.084Z,3.10
2022-09-21T04:30:14.184Z,2.97
2022-09-21T04:32:40.867Z,3.13
2022-09-21T04:35:07.950Z,2.80
2022-09-21T04:37:34.661Z,2.40
2022-09-21T04:40:01.580Z,3.27
2022-09-21T04:42:28.486Z,3.33
2022-09-21T04:44:56.231Z,6.90
2022-09-21T04:47:23.714Z,3.63
2022-09-21T04:49:50.443Z,3.67
2022-09-21T04:52:19.101Z,2.97
2022-09-21T04:54:46.550Z,3.13
2022-09-21T04:57:14.172Z,3.20
2022-09-21T04:59:40.735Z,2.80
2022-09-21T05:02:07.347Z,3.23
2022-09-21T05:04:33.894Z,2.90
2022-09-21T05:07:00.493Z,3.00
2022-09-21T05:09:45.797Z,3.10
2022-09-21T05:12:12.439Z,3.20
2022-09-21T05:14:39.249Z,3.30
2022-09-21T05:17:05.949Z,3.40
2022-09-21T05:19:32.539Z,3.10
2022-09-21T05:21:59.296Z,2.93
2022-09-21T05:24:28.067Z,3.43
2022-09-21T05:26:54.719Z,2.90
2022-09-21T05:29:21.815Z,3.37
2022-09-21T05:31:54.088Z,3.70
2022-09-21T05:34:48.441Z,3.60
2022-09-21T05:37:43.194Z,3.50
2022-09-21T05:40:12.693Z,3.63
2022-09-21T05:42:39.863Z,3.30
2022-09-21T05:45:08.341Z,3.23
2022-09-21T05:47:58.545Z,3.20
2022-09-21T05:50:34.581Z,3.83
2022-09-21T05:53:24.421Z,3.50
2022-09-21T05:56:03.036Z,3.30
2022-09-21T05:58:37.457Z,3.30
2022-09-21T06:01:22.980Z,3.10
2022-09-21T06:03:50.320Z,3.27
2022-09-21T06:06:19.115Z,3.03
2022-09-21T06:08:45.975Z,3.70
2022-09-21T06:11:13.984Z,3.70
2022-09-21T06:13:41.769Z,3.50
2022-09-21T06:16:08.890Z,3.40
2022-09-21T06:18:40.316Z,3.17
2022-09-21T06:21:08.235Z,3.57
2022-09-21T06:23:35.307Z,3.47
2022-09-21T06:26:02.225Z,3.30
2022-09-21T06:28:29.833Z,3.60
2022-09-21T06:30:58.294Z,3.33
2022-09-21T06:33:26.750Z,3.47
2022-09-21T06:35:55.546Z,3.47
2022-09-21T06:38:22.772Z,3.27
2022-09-21T06:40:50.479Z,3.70
2022-09-21T06:43:17.517Z,3.03
2022-09-21T06:45:44.595Z,3.80
2022-09-21T06:48:11.216Z,3.47
2022-09-21T06:50:39.150Z,3.03
2022-09-21T06:53:05.707Z,3.10
2022-09-21T06:55:32.764Z,3.83
2022-09-21T06:58:04.011Z,3.50
2022-09-21T07:00:31.274Z,3.33
2022-09-21T07:02:58.177Z,3.70
2022-09-21T07:05:25.073Z,3.43
2022-09-21T07:07:56.830Z,3.77
2022-09-21T07:10:23.677Z,3.60
2022-09-21T07:12:51.702Z,3.50
2022-09-21T07:15:21.578Z,3.67
2022-09-21T07:17:52.363Z,3.40
2022-09-21T07:20:19.561Z,3.43
2022-09-21T07:22:46.195Z,3.30
2022-09-21T07:25:12.831Z,4.17
2022-09-21T07:27:39.477Z,3.57
2022-09-21T07:30:07.368Z,3.17
2022-09-21T07:32:34.297Z,3.30
2022-09-21T07:35:01.039Z,3.20
2022-09-21T07:37:28.833Z,3.93
2022-09-21T07:39:55.492Z,4.03
2022-09-21T07:42:22.955Z,4.70
2022-09-21T07:44:50.942Z,4.23
2022-09-21T07:47:17.813Z,4.33
2022-09-21T07:49:45.830Z,4.40
2022-09-21T07:52:12.465Z,4.40
2022-09-21T07:54:39.036Z,3.10
2022-09-21T07:57:24.341Z,4.80
2022-09-21T07:59:51.234Z,3.17
2022-09-21T08:02:18.127Z,3.27
2022-09-21T08:04:45.330Z,3.97
2022-09-21T08:07:12.656Z,4.80
2022-09-21T08:09:39.311Z,4.67
2022-09-21T08:12:05.978Z,5.43
2022-09-21T08:14:32.736Z,3.70
2022-09-21T08:16:59.296Z,3.57
2022-09-21T08:19:26.729Z,3.53
2022-09-21T08:21:57.536Z,3.40
2022-09-21T08:24:26.952Z,3.63
2022-09-21T08:26:55.865Z,15.53
2022-09-21T08:29:23.946Z,3.80
2022-09-21T08:31:50.851Z,3.07
2022-09-21T08:34:17.551Z,3.73
2022-09-21T08:36:44.169Z,3.10
2022-09-21T08:39:10.967Z,3.00
2022-09-21T08:41:40.943Z,3.50
2022-09-21T08:44:17.074Z,3.17
2022-09-21T08:46:46.988Z,3.13
2022-09-21T08:49:21.549Z,3.23
2022-09-21T08:51:54.629Z,2.77
2022-09-21T08:54:29.246Z,2.60
2022-09-21T08:57:11.757Z,2.90
2022-09-21T08:59:43.210Z,3.20
2022-09-21T09:02:35.746Z,2.47
2022-09-21T09:05:39.835Z,2.50
2022-09-21T09:08:41.907Z,3.10
2022-09-21T09:11:15.033Z,3.10
2022-09-21T09:13:59.890Z,2.47
2022-09-21T09:16:48.070Z,3.00
2022-09-21T09:19:38.681Z,2.73
2022-09-21T09:22:07.826Z,2.80
2022-09-21T09:24:43.944Z,3.07
2022-09-21T09:27:22.778Z,2.80
2022-09-21T09:30:17.047Z,3.10
2022-09-21T09:32:44.075Z,2.43
2022-09-21T09:35:22.377Z,3.07
2022-09-21T09:37:50.859Z,2.60
2022-09-21T09:40:31.004Z,2.83
2022-09-21T09:43:20.603Z,2.40
2022-09-21T09:45:53.101Z,2.30
2022-09-21T09:48:19.730Z,2.53
2022-09-21T09:50:46.691Z,2.33
2022-09-21T09:53:19.226Z,3.00
2022-09-21T09:55:49.760Z,1.93
2022-09-21T09:58:23.203Z,2.73
2022-09-21T10:00:58.350Z,2.50
2022-09-21T10:03:30.174Z,2.23
2022-09-21T10:05:57.003Z,2.53
2022-09-21T10:08:44.854Z,2.20
2022-09-21T10:11:13.554Z,2.30
2022-09-21T10:13:42.801Z,2.43
2022-09-21T10:16:14.665Z,3.07
2022-09-21T10:18:49.458Z,2.20
2022-09-21T10:21:18.030Z,2.37
2022-09-21T10:23:57.454Z,2.70
2022-09-21T10:26:24.403Z,2.47
2022-09-21T10:29:21.865Z,2.53
2022-09-21T10:32:14.837Z,2.73
2022-09-21T10:34:59.841Z,2.80
2022-09-21T10:37:37.495Z,2.50
2022-09-21T10:40:05.765Z,2.40
2022-09-21T10:42:53.950Z,2.90
2022-09-21T10:45:24.717Z,2.90
2022-09-21T10:47:56.249Z,2.60
2022-09-21T10:50:53.225Z,2.40
2022-09-21T10:53:31.807Z,2.77
2022-09-21T10:56:17.337Z,2.50
2022-09-21T10:59:20.680Z,2.70
2022-09-21T11:01:50.303Z,2.83
2022-09-21T11:04:31.066Z,2.50
2022-09-21T11:07:15.428Z,2.50
2022-09-21T11:10:06.810Z,2.50
2022-09-21T11:12:47.446Z,2.67
2022-09-21T11:15:21.864Z,2.43
2022-09-21T11:21:20.355Z,2.80
2022-09-21T11:24:20.062Z,2.40
2022-09-21T11:26:56.331Z,2.10
2022-09-21T11:29:49.353Z,2.03
2022-09-21T11:32:25.225Z,1.93
2022-09-21T11:35:19.919Z,2.50
2022-09-21T11:37:49.698Z,2.10
2022-09-21T11:40:40.650Z,2.10
2022-09-21T11:43:25.783Z,2.13
2022-09-21T11:46:40.726Z,2.47
2022-09-21T11:49:42.617Z,2.40
2022-09-21T11:52:31.332Z,1.93
2022-09-21T11:55:16.058Z,1.90
2022-09-21T11:58:12.817Z,2.50
2022-09-21T12:01:06.058Z,2.27
2022-09-21T12:03:44.972Z,2.03
2022-09-21T12:06:27.178Z,2.20
2022-09-21T12:09:09.517Z,2.17
2022-09-21T12:11:48.702Z,1.70
2022-09-21T12:14:25.227Z,1.90
2022-09-21T12:17:21.289Z,2.10
2022-09-21T12:20:12.267Z,1.93
2022-09-21T12:22:45.698Z,2.10
2022-09-21T12:25:23.916Z,2.27
2022-09-21T12:27:54.050Z,2.00
2022-09-21T12:30:22.838Z,2.20
2022-09-21T12:33:19.312Z,2.20
2022-09-21T12:36:02.409Z,2.27
2022-09-21T12:38:40.972Z,1.93
2022-09-21T12:41:22.975Z,2.10
2022-09-21T12:43:52.147Z,1.87
2022-09-21T12:46:24.168Z,1.53
2022-09-21T12:48:50.880Z,1.63
2022-09-21T12:51:17.443Z,2.00
2022-09-21T12:53:50.930Z,2.03
2022-09-21T12:56:37.537Z,2.30
2022-09-21T12:59:26.046Z,1.87
2022-09-21T13:02:24.639Z,2.00
2022-09-21T13:05:42.524Z,2.00
2022-09-21T13:08:09.035Z,2.00
2022-09-21T13:10:46.151Z,2.00
2022-09-21T13:13:36.662Z,1.50
2022-09-21T13:16:05.636Z,1.90
2022-09-21T13:18:38.756Z,1.60
2022-09-21T13:21:22.089Z,1.50
2022-09-21T13:24:23.700Z,1.53
2022-09-21T13:27:05.198Z,1.67
2022-09-21T13:29:35.017Z,1.77
2022-09-21T13:32:22.050Z,1.53
2022-09-21T13:34:51.632Z,1.77
2022-09-21T13:37:18.163Z,1.43
2022-09-21T13:39:50.744Z,1.40
2022-09-21T13:42:29.585Z,1.80
2022-09-21T13:45:00.192Z,1.60
2022-09-21T13:47:33.946Z,1.47
2022-09-21T13:50:04.599Z,1.43
2022-09-21T13:52:40.236Z,1.53
2022-09-21T13:55:27.990Z,1.47
2022-09-21T13:57:58.944Z,1.40
2022-09-21T14:00:42.691Z,1.20
2022-09-21T14:03:27.240Z,1.70
2022-09-21T14:06:09.230Z,1.80
2022-09-21T14:08:41.888Z,1.43
2022-09-21T14:11:37.281Z,1.60
2022-09-21T14:14:31.784Z,1.50
2022-09-21T14:17:02.744Z,1.80
2022-09-21T14:19:33.253Z,1.43
2022-09-21T14:22:05.879Z,1.60
2022-09-21T14:24:42.075Z,1.57
2022-09-21T14:27:26.045Z,1.40
2022-09-21T14:29:59.925Z,1.50
2022-09-21T14:32:35.520Z,1.40
2022-09-21T14:35:11.049Z,1.50
2022-09-21T14:37:43.250Z,1.50
2022-09-21T14:44:01.317Z,1.87
2022-09-21T14:46:40.430Z,1.40
2022-09-21T14:49:26.747Z,1.30
2022-09-21T14:52:15.303Z,1.20
2022-09-21T14:55:11.939Z,1.67
2022-09-21T14:57:45.736Z,1.10
2022-09-21T15:00:28.625Z,1.50
2022-09-21T15:03:30.560Z,1.20
2022-09-21T15:06:38.370Z,1.40
2022-09-21T15:09:48.832Z,1.40
2022-09-21T15:12:23.505Z,1.10
2022-09-21T15:15:23.556Z,1.27
2022-09-21T15:17:59.873Z,1.20
2022-09-21T15:20:29.527Z,1.30
2022-09-21T15:22:58.574Z,1.37
2022-09-21T15:25:29.056Z,1.10
2022-09-21T15:27:55.753Z,1.10
2022-09-21T15:30:28.726Z,1.10
2022-09-21T15:33:01.018Z,1.10
2022-09-21T15:35:30.703Z,1.60
2022-09-21T15:38:00.933Z,1.27
2022-09-21T15:40:30.212Z,1.40
2022-09-21T15:43:06.541Z,1.40
2022-09-21T15:45:54.784Z,1.30
2022-09-21T15:48:26.591Z,1.38
2022-09-21T15:50:58.970Z,1.30
2022-09-21T15:53:31.147Z,1.23
2022-09-21T15:59:55.126Z,1.15
2022-09-21T16:02:25.436Z,1.20
2022-09-21T16:04:53.770Z,1.27
2022-09-21T16:07:42.405Z,3.25
2022-09-21T16:10:45.175Z,1.30
2022-09-21T16:13:43.137Z,1.40
2022-09-21T16:16:14.185Z,1.13
2022-09-21T16:18:52.316Z,1.40
2022-09-21T16:21:32.500Z,1.30
2022-09-21T16:24:10.928Z,1.35
2022-09-21T16:26:40.050Z,1.30
2022-09-21T16:29:23.688Z,1.40
2022-09-21T16:31:51.240Z,1.67
2022-09-21T16:34:46.066Z,1.40
2022-09-21T16:37:26.909Z,1.40
2022-09-21T16:39:55.663Z,1.37
2022-09-21T16:42:24.132Z,1.40
2022-09-21T16:44:50.811Z,1.30
2022-09-21T16:47:25.263Z,1.60
2022-09-21T16:49:57.097Z,1.40
2022-09-21T16:52:24.806Z,1.40
2022-09-21T16:54:51.894Z,1.40
2022-09-21T16:57:18.828Z,1.13
2022-09-21T16:59:45.475Z,1.40
2022-09-21T17:02:14.461Z,1.27
2022-09-21T17:04:41.396Z,1.20
2022-09-21T17:07:13.639Z,1.40
2022-09-21T17:09:47.681Z,1.73
2022-09-21T17:12:16.940Z,1.40
2022-09-21T17:14:46.969Z,1.23
2022-09-21T17:17:22.877Z,1.37
2022-09-21T17:19:51.958Z,1.70
2022-09-21T17:22:19.329Z,1.70
2022-09-21T17:24:54.926Z,1.50
2022-09-21T17:27:24.371Z,2.00
2022-09-21T17:29:53.772Z,1.83
2022-09-21T17:32:22.598Z,1.53
2022-09-21T17:35:12.519Z,1.80
2022-09-21T17:37:39.176Z,1.67
2022-09-21T17:40:10.656Z,1.70
2022-09-21T17:42:48.387Z,1.60
2022-09-21T17:45:32.567Z,1.60
2022-09-21T17:47:59.643Z,1.60
2022-09-21T17:50:28.147Z,1.47
2022-09-21T17:53:14.839Z,1.60
2022-09-21T17:56:09.406Z,2.80
2022-09-21T17:58:45.434Z,3.40
2022-09-21T18:01:27.360Z,2.03
2022-09-21T18:03:54.285Z,2.27
2022-09-21T18:06:21.979Z,3.60
2022-09-21T18:08:49.204Z,8.87
2022-09-21T18:11:27.426Z,2.03
2022-09-21T18:14:21.895Z,2.07
2022-09-21T18:16:54.482Z,2.07
2022-09-21T18:19:59.814Z,1.77
2022-09-21T18:22:32.337Z,1.80
2022-09-21T18:24:59.123Z,2.07
2022-09-21T18:27:26.123Z,1.83
2022-09-21T18:29:53.090Z,1.67
2022-09-21T18:32:39.725Z,2.00
2022-09-21T18:35:23.876Z,1.93
2022-09-21T18:38:08.723Z,2.07
2022-09-21T18:40:50.509Z,2.20
2022-09-21T18:43:48.491Z,2.10
2022-09-21T18:46:41.630Z,1.93
2022-09-21T18:49:35.799Z,1.90
2022-09-21T18:52:28.652Z,1.70
2022-09-21T18:54:55.430Z,3.63
2022-09-21T18:57:23.506Z,1.80
2022-09-21T18:59:50.504Z,1.80
2022-09-21T19:02:20.355Z,1.83
2022-09-21T19:04:48.976Z,1.70
2022-09-21T19:07:18.526Z,1.90
2022-09-21T19:09:52.134Z,1.80
2022-09-21T19:12:31.858Z,2.10
2022-09-21T19:15:56.074Z,1.77
2022-09-21T19:18:46.342Z,1.87
2022-09-21T19:21:28.201Z,1.80
2022-09-21T19:24:07.020Z,1.60
2022-09-21T19:26:59.437Z,1.67
2022-09-21T19:29:50.442Z,2.00
2022-09-21T19:32:32.532Z,1.90
2022-09-21T19:35:15.220Z,2.03
2022-09-21T19:37:41.893Z,1.90
2022-09-21T19:40:09.213Z,1.73
2022-09-21T19:42:56.347Z,1.87
2022-09-21T19:45:32.882Z,1.80
2022-09-21T19:48:04.803Z,2.23
2022-09-21T19:50:46.906Z,2.43
2022-09-21T19:53:33.075Z,2.90
2022-09-21T19:56:24.286Z,2.60
2022-09-21T19:59:09.858Z,2.50
2022-09-21T20:01:40.265Z,2.10
2022-09-21T20:04:07.746Z,2.23
2022-09-21T20:06:44.025Z,1.97
2022-09-21T20:09:24.580Z,2.30
2022-09-21T20:12:21.515Z,2.00
2022-09-21T20:14:53.961Z,1.93
2022-09-21T20:17:36.698Z,2.83
2022-09-21T20:20:13.770Z,2.40
2022-09-21T20:22:41.069Z,1.97
2022-09-21T20:25:24.244Z,2.00
2022-09-21T20:27:58.563Z,2.30
2022-09-21T20:30:28.552Z,1.93
2022-09-21T20:32:59.944Z,2.00
2022-09-21T20:35:29.691Z,1.90
2022-09-21T20:38:01.938Z,2.10
2022-09-21T20:40:29.385Z,2.03
2022-09-21T20:42:57.458Z,1.87
2022-09-21T20:45:24.894Z,1.87
2022-09-21T20:47:54.351Z,2.20
2022-09-21T20:50:22.323Z,1.67
2022-09-21T20:52:49.053Z,2.27
2022-09-21T20:55:17.643Z,2.67
2022-09-21T20:57:44.797Z,2.60
2022-09-21T21:00:14.707Z,2.20
2022-09-21T21:02:41.766Z,2.30
2022-09-21T21:10:34.368Z,2.57
2022-09-21T21:13:04.569Z,2.03
2022-09-21T21:15:32.080Z,2.40
2022-09-21T21:17:58.771Z,1.73
2022-09-21T21:20:26.168Z,2.23
2022-09-21T21:22:53.878Z,2.50
2022-09-21T21:25:20.590Z,2.07
2022-09-21T21:27:47.229Z,2.13
2022-09-21T21:30:14.007Z,1.90
2022-09-21T21:32:40.925Z,1.77
2022-09-21T21:35:08.057Z,1.90
2022-09-21T21:37:34.683Z,1.90
2022-09-21T21:40:02.320Z,1.90
2022-09-21T21:42:29.613Z,2.40
2022-09-21T21:44:56.501Z,1.87
2022-09-21T21:47:40.203Z,1.83
2022-09-21T21:50:09.333Z,1.40
2022-09-21T21:52:35.954Z,1.90
2022-09-21T21:55:02.621Z,1.60
2022-09-21T21:57:29.321Z,1.53
2022-09-21T21:59:55.919Z,1.80
2022-09-21T22:02:22.677Z,1.40
2022-09-21T22:04:49.351Z,1.50
2022-09-21T22:07:15.919Z,1.57
2022-09-21T22:09:42.478Z,1.70
2022-09-21T22:12:09.146Z,1.63
2022-09-21T22:14:35.858Z,1.47
2022-09-21T22:17:02.688Z,1.37
2022-09-21T22:19:29.516Z,1.30
2022-09-21T22:21:56.188Z,1.50
2022-09-21T22:24:23.013Z,1.57
2022-09-21T22:26:50.055Z,1.60
2022-09-21T22:29:17.507Z,1.60
2022-09-21T22:31:49.511Z,1.60
2022-09-21T22:34:16.867Z,1.60
2022-09-21T22:36:43.926Z,1.67
2022-09-21T22:39:11.211Z,1.27
2022-09-21T22:41:40.232Z,1.60
2022-09-21T22:44:07.938Z,1.60
2022-09-21T22:46:34.931Z,1.60
2022-09-21T22:49:02.171Z,1.60
2022-09-21T22:51:29.653Z,2.20
2022-09-21T22:53:56.567Z,1.23
2022-09-21T22:56:26.387Z,1.40
2022-09-21T22:58:55.414Z,1.60
2022-09-21T23:01:26.429Z,1.30
2022-09-21T23:03:56.555Z,1.73
2022-09-21T23:06:26.725Z,1.57
2022-09-21T23:08:56.268Z,1.60
2022-09-21T23:11:29.070Z,1.60
2022-09-21T23:13:56.784Z,1.60
2022-09-21T23:16:24.947Z,1.40
2022-09-21T23:18:52.290Z,1.50
2022-09-21T23:21:22.497Z,1.40
2022-09-21T23:23:49.659Z,1.57
2022-09-21T23:26:19.214Z,1.60
2022-09-21T23:28:52.313Z,1.50
2022-09-21T23:31:19.307Z,1.60
2022-09-21T23:33:51.588Z,1.80
2022-09-21T23:36:21.113Z,1.60
2022-09-21T23:38:49.188Z,1.50
2022-09-21T23:41:27.571Z,1.43
2022-09-21T23:43:54.859Z,1.50
2022-09-21T23:46:24.676Z,1.60
2022-09-21T23:48:51.816Z,1.70
2022-09-21T23:51:19.813Z,1.70
2022-09-21T23:53:47.445Z,1.50
2022-09-21T23:56:19.821Z,1.80
2022-09-21T23:58:47.138Z,1.60
